sensor_id;sensor_type;location;lat;lon;timestamp;P1;durP1;ratioP1;P2;durP2;ratioP2
30215;SDS011;17028;47.642;8.070;2022-09-03T00:09:54;5.10;;;3.63;;
30215;SDS011;17028;47.642;8.070;2022-09-03T00:15:00;5.38;;;3.65;;
30215;SDS011;17028;47.642;8.070;2022-09-03T00:20:06;4.82;;;3.75;;
30215;SDS011;17028;47.642;8.070;2022-09-03T00:25:12;4.40;;;3.53;;
30215;SDS011;17028;47.642;8.070;2022-09-03T00:35:29;4.45;;;3.60;;
30215;SDS011;17028;47.642;8.070;2022-09-03T00:46:22;5.13;;;4.13;;
30215;SDS011;17028;47.642;8.070;2022-09-03T00:51:42;4.53;;;3.72;;
30215;SDS011;17028;47.642;8.070;2022-09-03T00:56:52;4.15;;;3.47;;
30215;SDS011;17028;47.642;8.070;2022-09-03T01:02:35;4.93;;;3.80;;
30215;SDS011;17028;47.642;8.070;2022-09-03T01:13:18;4.15;;;3.55;;
30215;SDS011;17028;47.642;8.070;2022-09-03T01:18:51;4.28;;;3.50;;
30215;SDS011;17028;47.642;8.070;2022-09-03T01:24:15;3.80;;;3.22;;
30215;SDS011;17028;47.642;8.070;2022-09-03T01:29:33;5.82;;;4.15;;
30215;SDS011;17028;47.642;8.070;2022-09-03T01:39:57;4.15;;;3.25;;
30215;SDS011;17028;47.642;8.070;2022-09-03T01:55:46;4.25;;;3.30;;
30215;SDS011;17028;47.642;8.070;2022-09-03T02:01:00;4.40;;;3.70;;
30215;SDS011;17028;47.642;8.070;2022-09-03T02:06:07;3.90;;;3.15;;
30215;SDS011;17028;47.642;8.070;2022-09-03T02:11:10;4.43;;;3.47;;
30215;SDS011;17028;47.642;8.070;2022-09-03T02:16:15;3.65;;;3.10;;
30215;SDS011;17028;47.642;8.070;2022-09-03T02:21:20;4.45;;;3.58;;
30215;SDS011;17028;47.642;8.070;2022-09-03T02:26:23;5.32;;;3.78;;
30215;SDS011;17028;47.642;8.070;2022-09-03T02:31:24;5.07;;;3.83;;
30215;SDS011;17028;47.642;8.070;2022-09-03T02:36:29;5.47;;;4.07;;
30215;SDS011;17028;47.642;8.070;2022-09-03T02:41:33;4.88;;;4.22;;
30215;SDS011;17028;47.642;8.070;2022-09-03T02:46:37;4.38;;;3.40;;
30215;SDS011;17028;47.642;8.070;2022-09-03T02:51:41;3.88;;;3.28;;
30215;SDS011;17028;47.642;8.070;2022-09-03T02:56:43;4.20;;;3.30;;
30215;SDS011;17028;47.642;8.070;2022-09-03T03:01:47;3.90;;;3.30;;
30215;SDS011;17028;47.642;8.070;2022-09-03T03:06:49;3.45;;;2.67;;
30215;SDS011;17028;47.642;8.070;2022-09-03T03:11:50;4.00;;;3.03;;
30215;SDS011;17028;47.642;8.070;2022-09-03T03:16:51;4.18;;;3.00;;
30215;SDS011;17028;47.642;8.070;2022-09-03T03:21:52;8.70;;;5.82;;
30215;SDS011;17028;47.642;8.070;2022-09-03T03:26:54;6.05;;;5.10;;
30215;SDS011;17028;47.642;8.070;2022-09-03T03:31:57;5.78;;;4.40;;
30215;SDS011;17028;47.642;8.070;2022-09-03T03:36:58;4.32;;;3.30;;
30215;SDS011;17028;47.642;8.070;2022-09-03T03:41:59;4.32;;;3.33;;
30215;SDS011;17028;47.642;8.070;2022-09-03T03:47:01;3.75;;;3.05;;
30215;SDS011;17028;47.642;8.070;2022-09-03T03:52:02;4.95;;;4.10;;
30215;SDS011;17028;47.642;8.070;2022-09-03T03:57:04;5.03;;;3.90;;
30215;SDS011;17028;47.642;8.070;2022-09-03T04:02:04;5.05;;;3.63;;
30215;SDS011;17028;47.642;8.070;2022-09-03T04:07:06;4.18;;;3.47;;
30215;SDS011;17028;47.642;8.070;2022-09-03T04:12:07;4.32;;;3.15;;
30215;SDS011;17028;47.642;8.070;2022-09-03T04:17:09;4.18;;;3.33;;
30215;SDS011;17028;47.642;8.070;2022-09-03T04:22:10;3.63;;;3.08;;
30215;SDS011;17028;47.642;8.070;2022-09-03T04:27:11;4.53;;;3.20;;
30215;SDS011;17028;47.642;8.070;2022-09-03T04:32:12;4.22;;;3.55;;
30215;SDS011;17028;47.642;8.070;2022-09-03T04:37:32;4.93;;;3.90;;
30215;SDS011;17028;47.642;8.070;2022-09-03T04:42:33;4.72;;;3.60;;
30215;SDS011;17028;47.642;8.070;2022-09-03T04:47:34;5.40;;;4.45;;
30215;SDS011;17028;47.642;8.070;2022-09-03T04:52:36;4.55;;;3.70;;
30215;SDS011;17028;47.642;8.070;2022-09-03T04:57:38;6.82;;;4.55;;
30215;SDS011;17028;47.642;8.070;2022-09-03T05:02:39;4.43;;;3.50;;
30215;SDS011;17028;47.642;8.070;2022-09-03T05:07:40;4.32;;;3.20;;
30215;SDS011;17028;47.642;8.070;2022-09-03T05:12:41;3.50;;;2.60;;
30215;SDS011;17028;47.642;8.070;2022-09-03T05:17:42;3.50;;;2.70;;
30215;SDS011;17028;47.642;8.070;2022-09-03T05:22:43;3.78;;;2.95;;
30215;SDS011;17028;47.642;8.070;2022-09-03T05:27:44;3.20;;;2.53;;
30215;SDS011;17028;47.642;8.070;2022-09-03T05:32:46;3.03;;;2.20;;
30215;SDS011;17028;47.642;8.070;2022-09-03T05:37:47;3.10;;;2.35;;
30215;SDS011;17028;47.642;8.070;2022-09-03T05:42:52;3.03;;;2.38;;
30215;SDS011;17028;47.642;8.070;2022-09-03T05:47:54;2.88;;;2.30;;
30215;SDS011;17028;47.642;8.070;2022-09-03T05:52:57;3.65;;;2.58;;
30215;SDS011;17028;47.642;8.070;2022-09-03T05:57:58;5.07;;;3.67;;
30215;SDS011;17028;47.642;8.070;2022-09-03T06:02:59;4.22;;;3.20;;
30215;SDS011;17028;47.642;8.070;2022-09-03T06:08:01;4.43;;;3.53;;
30215;SDS011;17028;47.642;8.070;2022-09-03T06:13:02;4.03;;;3.05;;
30215;SDS011;17028;47.642;8.070;2022-09-03T06:18:03;4.28;;;3.40;;
30215;SDS011;17028;47.642;8.070;2022-09-03T06:23:04;4.60;;;3.13;;
30215;SDS011;17028;47.642;8.070;2022-09-03T06:28:05;4.47;;;3.45;;
30215;SDS011;17028;47.642;8.070;2022-09-03T06:33:08;4.88;;;3.38;;
30215;SDS011;17028;47.642;8.070;2022-09-03T06:38:09;5.05;;;4.05;;
30215;SDS011;17028;47.642;8.070;2022-09-03T06:43:13;4.53;;;3.10;;
30215;SDS011;17028;47.642;8.070;2022-09-03T06:48:14;3.92;;;2.90;;
30215;SDS011;17028;47.642;8.070;2022-09-03T06:53:15;3.17;;;2.55;;
30215;SDS011;17028;47.642;8.070;2022-09-03T06:58:16;3.58;;;2.85;;
30215;SDS011;17028;47.642;8.070;2022-09-03T07:03:18;3.50;;;2.75;;
30215;SDS011;17028;47.642;8.070;2022-09-03T07:08:19;3.00;;;2.50;;
30215;SDS011;17028;47.642;8.070;2022-09-03T07:13:20;5.28;;;3.70;;
30215;SDS011;17028;47.642;8.070;2022-09-03T07:18:21;4.85;;;4.05;;
30215;SDS011;17028;47.642;8.070;2022-09-03T07:23:22;5.63;;;4.38;;
30215;SDS011;17028;47.642;8.070;2022-09-03T07:28:23;4.80;;;3.83;;
30215;SDS011;17028;47.642;8.070;2022-09-03T07:33:27;4.78;;;3.50;;
30215;SDS011;17028;47.642;8.070;2022-09-03T07:38:29;6.22;;;4.35;;
30215;SDS011;17028;47.642;8.070;2022-09-03T07:43:35;6.88;;;4.70;;
30215;SDS011;17028;47.642;8.070;2022-09-03T07:48:39;6.57;;;4.70;;
30215;SDS011;17028;47.642;8.070;2022-09-03T07:53:41;8.40;;;5.97;;
30215;SDS011;17028;47.642;8.070;2022-09-03T07:58:42;6.70;;;5.05;;
30215;SDS011;17028;47.642;8.070;2022-09-03T08:03:44;7.18;;;5.80;;
30215;SDS011;17028;47.642;8.070;2022-09-03T08:08:46;5.78;;;4.80;;
30215;SDS011;17028;47.642;8.070;2022-09-03T08:18:54;4.10;;;3.10;;
30215;SDS011;17028;47.642;8.070;2022-09-03T08:23:56;3.78;;;2.85;;
30215;SDS011;17028;47.642;8.070;2022-09-03T08:29:02;3.50;;;2.60;;
30215;SDS011;17028;47.642;8.070;2022-09-03T08:34:05;3.65;;;2.70;;
30215;SDS011;17028;47.642;8.070;2022-09-03T08:39:07;3.85;;;2.80;;
30215;SDS011;17028;47.642;8.070;2022-09-03T08:50:08;4.50;;;3.67;;
30215;SDS011;17028;47.642;8.070;2022-09-03T09:00:26;3.28;;;2.70;;
30215;SDS011;17028;47.642;8.070;2022-09-03T09:05:50;6.43;;;3.75;;
30215;SDS011;17028;47.642;8.070;2022-09-03T09:11:13;3.97;;;2.92;;
30215;SDS011;17028;47.642;8.070;2022-09-03T09:16:38;4.65;;;3.17;;
30215;SDS011;17028;47.642;8.070;2022-09-03T09:22:00;5.18;;;3.20;;
30215;SDS011;17028;47.642;8.070;2022-09-03T09:27:07;3.20;;;2.03;;
30215;SDS011;17028;47.642;8.070;2022-09-03T09:32:08;3.10;;;1.48;;
30215;SDS011;17028;47.642;8.070;2022-09-03T09:37:13;2.65;;;1.38;;
30215;SDS011;17028;47.642;8.070;2022-09-03T09:42:15;1.98;;;1.10;;
30215;SDS011;17028;47.642;8.070;2022-09-03T09:47:26;1.35;;;0.88;;
30215;SDS011;17028;47.642;8.070;2022-09-03T09:52:30;1.23;;;0.90;;
30215;SDS011;17028;47.642;8.070;2022-09-03T09:57:31;1.20;;;0.90;;
30215;SDS011;17028;47.642;8.070;2022-09-03T10:02:34;2.90;;;1.00;;
30215;SDS011;17028;47.642;8.070;2022-09-03T10:07:39;1.42;;;0.90;;
30215;SDS011;17028;47.642;8.070;2022-09-03T10:12:42;2.42;;;0.82;;
30215;SDS011;17028;47.642;8.070;2022-09-03T10:17:52;0.70;;;0.70;;
30215;SDS011;17028;47.642;8.070;2022-09-03T10:28:26;1.00;;;0.70;;
30215;SDS011;17028;47.642;8.070;2022-09-03T10:34:13;1.15;;;0.77;;
30215;SDS011;17028;47.642;8.070;2022-09-03T10:44:58;1.60;;;0.95;;
30215;SDS011;17028;47.642;8.070;2022-09-03T11:00:51;1.52;;;0.85;;
30215;SDS011;17028;47.642;8.070;2022-09-03T11:06:05;2.10;;;0.77;;
30215;SDS011;17028;47.642;8.070;2022-09-03T11:11:19;1.52;;;1.02;;
30215;SDS011;17028;47.642;8.070;2022-09-03T11:16:47;1.88;;;1.00;;
30215;SDS011;17028;47.642;8.070;2022-09-03T11:21:53;1.40;;;0.90;;
30215;SDS011;17028;47.642;8.070;2022-09-03T11:32:08;0.82;;;0.63;;
30215;SDS011;17028;47.642;8.070;2022-09-03T11:37:25;1.13;;;0.50;;
30215;SDS011;17028;47.642;8.070;2022-09-03T11:47:39;1.65;;;0.63;;
30215;SDS011;17028;47.642;8.070;2022-09-03T11:52:42;1.17;;;0.85;;
30215;SDS011;17028;47.642;8.070;2022-09-03T11:57:43;1.85;;;0.90;;
30215;SDS011;17028;47.642;8.070;2022-09-03T12:02:47;1.20;;;0.68;;
30215;SDS011;17028;47.642;8.070;2022-09-03T12:13:32;0.57;;;0.50;;
30215;SDS011;17028;47.642;8.070;2022-09-03T12:18:49;1.08;;;0.80;;
30215;SDS011;17028;47.642;8.070;2022-09-03T12:23:52;1.30;;;0.75;;
30215;SDS011;17028;47.642;8.070;2022-09-03T12:28:55;2.13;;;0.73;;
30215;SDS011;17028;47.642;8.070;2022-09-03T12:34:00;1.30;;;0.80;;
30215;SDS011;17028;47.642;8.070;2022-09-03T12:39:09;1.93;;;0.77;;
30215;SDS011;17028;47.642;8.070;2022-09-03T12:44:24;3.40;;;1.27;;
30215;SDS011;17028;47.642;8.070;2022-09-03T12:49:36;1.58;;;0.95;;
30215;SDS011;17028;47.642;8.070;2022-09-03T12:54:44;1.88;;;1.40;;
30215;SDS011;17028;47.642;8.070;2022-09-03T12:59:52;1.83;;;1.15;;
30215;SDS011;17028;47.642;8.070;2022-09-03T13:04:58;2.03;;;1.17;;
30215;SDS011;17028;47.642;8.070;2022-09-03T13:10:01;3.10;;;1.30;;
30215;SDS011;17028;47.642;8.070;2022-09-03T13:15:08;2.65;;;1.42;;
30215;SDS011;17028;47.642;8.070;2022-09-03T13:26:21;2.45;;;1.58;;
30215;SDS011;17028;47.642;8.070;2022-09-03T13:31:31;1.35;;;1.10;;
30215;SDS011;17028;47.642;8.070;2022-09-03T13:36:41;2.22;;;1.10;;
30215;SDS011;17028;47.642;8.070;2022-09-03T13:41:50;1.52;;;1.13;;
30215;SDS011;17028;47.642;8.070;2022-09-03T13:47:43;1.92;;;1.23;;
30215;SDS011;17028;47.642;8.070;2022-09-03T13:57:58;3.60;;;1.52;;
30215;SDS011;17028;47.642;8.070;2022-09-03T14:19:33;3.38;;;1.40;;
30215;SDS011;17028;47.642;8.070;2022-09-03T14:30:01;2.05;;;1.38;;
30215;SDS011;17028;47.642;8.070;2022-09-03T14:40:41;2.05;;;1.10;;
30215;SDS011;17028;47.642;8.070;2022-09-03T14:46:08;2.17;;;1.60;;
30215;SDS011;17028;47.642;8.070;2022-09-03T14:52:00;1.77;;;1.35;;
30215;SDS011;17028;47.642;8.070;2022-09-03T15:07:35;2.45;;;1.52;;
30215;SDS011;17028;47.642;8.070;2022-09-03T15:12:45;2.50;;;1.50;;
30215;SDS011;17028;47.642;8.070;2022-09-03T15:29:02;2.40;;;1.50;;
30215;SDS011;17028;47.642;8.070;2022-09-03T15:39:32;1.65;;;1.27;;
30215;SDS011;17028;47.642;8.070;2022-09-03T15:44:41;2.33;;;1.45;;
30215;SDS011;17028;47.642;8.070;2022-09-03T15:49:51;1.52;;;1.30;;
30215;SDS011;17028;47.642;8.070;2022-09-03T16:00:23;1.98;;;1.60;;
30215;SDS011;17028;47.642;8.070;2022-09-03T16:05:26;1.73;;;1.40;;
30215;SDS011;17028;47.642;8.070;2022-09-03T16:16:10;1.75;;;1.33;;
30215;SDS011;17028;47.642;8.070;2022-09-03T16:37:29;2.90;;;1.75;;
30215;SDS011;17028;47.642;8.070;2022-09-03T16:42:42;2.35;;;1.90;;
30215;SDS011;17028;47.642;8.070;2022-09-03T17:09:55;3.63;;;1.92;;
30215;SDS011;17028;47.642;8.070;2022-09-03T17:15:10;2.30;;;1.80;;
30215;SDS011;17028;47.642;8.070;2022-09-03T17:25:23;2.20;;;1.42;;
30215;SDS011;17028;47.642;8.070;2022-09-03T17:30:35;2.72;;;1.65;;
30215;SDS011;17028;47.642;8.070;2022-09-03T17:35:48;1.88;;;1.50;;
30215;SDS011;17028;47.642;8.070;2022-09-03T17:46:16;1.30;;;1.15;;
30215;SDS011;17028;47.642;8.070;2022-09-03T17:56:34;1.42;;;1.10;;
30215;SDS011;17028;47.642;8.070;2022-09-03T18:01:50;1.50;;;1.08;;
30215;SDS011;17028;47.642;8.070;2022-09-03T18:07:04;2.30;;;1.50;;
30215;SDS011;17028;47.642;8.070;2022-09-03T18:12:17;2.60;;;1.90;;
30215;SDS011;17028;47.642;8.070;2022-09-03T18:28:18;2.70;;;2.17;;
30215;SDS011;17028;47.642;8.070;2022-09-03T18:33:46;2.63;;;1.98;;
30215;SDS011;17028;47.642;8.070;2022-09-03T18:39:09;3.58;;;2.22;;
30215;SDS011;17028;47.642;8.070;2022-09-03T18:44:38;2.80;;;2.10;;
30215;SDS011;17028;47.642;8.070;2022-09-03T19:01:29;4.43;;;3.33;;
30215;SDS011;17028;47.642;8.070;2022-09-03T19:07:01;4.45;;;3.30;;
30215;SDS011;17028;47.642;8.070;2022-09-03T19:23:39;3.70;;;3.03;;
30215;SDS011;17028;47.642;8.070;2022-09-03T19:29:00;4.38;;;3.10;;
30215;SDS011;17028;47.642;8.070;2022-09-03T19:51:16;3.78;;;2.53;;
30215;SDS011;17028;47.642;8.070;2022-09-03T19:56:39;3.42;;;2.75;;
30215;SDS011;17028;47.642;8.070;2022-09-03T20:02:03;3.63;;;2.67;;
30215;SDS011;17028;47.642;8.070;2022-09-03T20:07:22;3.45;;;2.60;;
30215;SDS011;17028;47.642;8.070;2022-09-03T20:12:44;3.20;;;2.50;;
30215;SDS011;17028;47.642;8.070;2022-09-03T20:18:01;4.85;;;3.00;;
30215;SDS011;17028;47.642;8.070;2022-09-03T20:23:16;3.55;;;2.70;;
30215;SDS011;17028;47.642;8.070;2022-09-03T20:34:06;4.15;;;2.70;;
30215;SDS011;17028;47.642;8.070;2022-09-03T20:45:10;4.03;;;2.70;;
30215;SDS011;17028;47.642;8.070;2022-09-03T20:50:36;4.28;;;3.00;;
30215;SDS011;17028;47.642;8.070;2022-09-03T20:55:45;6.15;;;3.40;;
30215;SDS011;17028;47.642;8.070;2022-09-03T21:11:44;4.77;;;2.93;;
30215;SDS011;17028;47.642;8.070;2022-09-03T21:27:44;4.55;;;2.88;;
30215;SDS011;17028;47.642;8.070;2022-09-03T21:32:50;3.17;;;2.50;;
30215;SDS011;17028;47.642;8.070;2022-09-03T21:38:03;4.05;;;3.00;;
30215;SDS011;17028;47.642;8.070;2022-09-03T21:43:08;4.10;;;2.70;;
30215;SDS011;17028;47.642;8.070;2022-09-03T21:48:16;3.10;;;2.13;;
30215;SDS011;17028;47.642;8.070;2022-09-03T21:53:29;3.20;;;2.30;;
30215;SDS011;17028;47.642;8.070;2022-09-03T22:04:01;3.90;;;2.50;;
30215;SDS011;17028;47.642;8.070;2022-09-03T22:09:07;4.18;;;2.63;;
30215;SDS011;17028;47.642;8.070;2022-09-03T22:14:15;3.47;;;2.60;;
30215;SDS011;17028;47.642;8.070;2022-09-03T22:19:20;3.15;;;2.45;;
30215;SDS011;17028;47.642;8.070;2022-09-03T22:29:54;3.92;;;2.67;;
30215;SDS011;17028;47.642;8.070;2022-09-03T22:40:38;3.78;;;2.50;;
30215;SDS011;17028;47.642;8.070;2022-09-03T22:50:46;3.88;;;2.70;;
30215;SDS011;17028;47.642;8.070;2022-09-03T22:55:58;3.97;;;2.70;;
30215;SDS011;17028;47.642;8.070;2022-09-03T23:01:13;5.57;;;2.70;;
30215;SDS011;17028;47.642;8.070;2022-09-03T23:06:23;5.43;;;3.10;;
30215;SDS011;17028;47.642;8.070;2022-09-03T23:11:46;3.80;;;2.80;;
30215;SDS011;17028;47.642;8.070;2022-09-03T23:16:53;4.15;;;3.05;;
30215;SDS011;17028;47.642;8.070;2022-09-03T23:22:18;3.97;;;2.80;;
30215;SDS011;17028;47.642;8.070;2022-09-03T23:27:24;5.10;;;3.03;;
30215;SDS011;17028;47.642;8.070;2022-09-03T23:32:30;3.92;;;2.85;;
30215;SDS011;17028;47.642;8.070;2022-09-03T23:37:36;4.50;;;3.13;;
30215;SDS011;17028;47.642;8.070;2022-09-03T23:43:17;4.57;;;2.97;;
30215;SDS011;17028;47.642;8.070;2022-09-03T23:59:00;4.20;;;3.00;;
